sensor_id;sensor_type;location;lat;lon;timestamp;temperature;humidity
54540;SHT30;40438;52.992;18.604;2023-09-07T00:01:52;19.01;73.23
54540;SHT30;40438;52.992;18.604;2023-09-07T00:04:20;18.98;73.17
54540;SHT30;40438;52.992;18.604;2023-09-07T00:06:45;18.91;73.24
54540;SHT30;40438;52.992;18.604;2023-09-07T00:09:11;18.84;73.31
54540;SHT30;40438;52.992;18.604;2023-09-07T00:11:37;18.77;73.48
54540;SHT30;40438;52.992;18.604;2023-09-07T00:14:03;18.71;73.63
54540;SHT30;40438;52.992;18.604;2023-09-07T00:16:31;18.61;73.63
54540;SHT30;40438;52.992;18.604;2023-09-07T00:18:57;18.53;73.97
54540;SHT30;40438;52.992;18.604;2023-09-07T00:21:24;18.43;73.98
54540;SHT30;40438;52.992;18.604;2023-09-07T00:23:49;18.44;73.99
54540;SHT30;40438;52.992;18.604;2023-09-07T00:26:15;18.42;73.96
54540;SHT30;40438;52.992;18.604;2023-09-07T00:28:41;18.42;74.11
54540;SHT30;40438;52.992;18.604;2023-09-07T00:31:07;18.33;74.25
54540;SHT30;40438;52.992;18.604;2023-09-07T00:33:33;18.32;74.20
54540;SHT30;40438;52.992;18.604;2023-09-07T00:36:01;18.27;74.23
54540;SHT30;40438;52.992;18.604;2023-09-07T00:38:28;18.20;74.52
54540;SHT30;40438;52.992;18.604;2023-09-07T00:40:54;18.08;74.78
54540;SHT30;40438;52.992;18.604;2023-09-07T00:43:20;18.02;74.92
54540;SHT30;40438;52.992;18.604;2023-09-07T00:45:46;17.92;75.11
54540;SHT30;40438;52.992;18.604;2023-09-07T00:48:14;17.86;75.34
54540;SHT30;40438;52.992;18.604;2023-09-07T00:50:40;17.82;75.49
54540;SHT30;40438;52.992;18.604;2023-09-07T00:53:06;17.74;75.51
54540;SHT30;40438;52.992;18.604;2023-09-07T00:55:35;17.71;75.70
54540;SHT30;40438;52.992;18.604;2023-09-07T00:58:02;17.61;75.86
54540;SHT30;40438;52.992;18.604;2023-09-07T01:00:28;17.60;75.80
54540;SHT30;40438;52.992;18.604;2023-09-07T01:02:54;17.57;75.90
54540;SHT30;40438;52.992;18.604;2023-09-07T01:05:26;17.53;75.95
54540;SHT30;40438;52.992;18.604;2023-09-07T01:07:55;17.47;75.92
54540;SHT30;40438;52.992;18.604;2023-09-07T01:10:22;17.41;76.14
54540;SHT30;40438;52.992;18.604;2023-09-07T01:12:50;17.41;76.26
54540;SHT30;40438;52.992;18.604;2023-09-07T01:15:15;17.36;76.21
54540;SHT30;40438;52.992;18.604;2023-09-07T01:17:42;17.33;76.33
54540;SHT30;40438;52.992;18.604;2023-09-07T01:20:10;17.30;76.39
54540;SHT30;40438;52.992;18.604;2023-09-07T01:22:38;17.36;76.21
54540;SHT30;40438;52.992;18.604;2023-09-07T01:25:06;17.40;75.88
54540;SHT30;40438;52.992;18.604;2023-09-07T01:27:32;17.38;75.83
54540;SHT30;40438;52.992;18.604;2023-09-07T01:29:58;17.37;75.87
54540;SHT30;40438;52.992;18.604;2023-09-07T01:32:24;17.30;75.97
54540;SHT30;40438;52.992;18.604;2023-09-07T01:34:50;17.26;76.19
54540;SHT30;40438;52.992;18.604;2023-09-07T01:37:16;17.22;76.17
54540;SHT30;40438;52.992;18.604;2023-09-07T01:39:43;17.19;76.31
54540;SHT30;40438;52.992;18.604;2023-09-07T01:42:09;17.17;76.44
54540;SHT30;40438;52.992;18.604;2023-09-07T01:44:34;17.13;76.53
54540;SHT30;40438;52.992;18.604;2023-09-07T01:47:00;17.16;76.62
54540;SHT30;40438;52.992;18.604;2023-09-07T01:49:27;17.12;76.35
54540;SHT30;40438;52.992;18.604;2023-09-07T01:51:53;17.05;76.40
54540;SHT30;40438;52.992;18.604;2023-09-07T01:54:19;16.99;76.71
54540;SHT30;40438;52.992;18.604;2023-09-07T01:56:47;16.96;76.83
54540;SHT30;40438;52.992;18.604;2023-09-07T01:59:13;16.92;76.97
54540;SHT30;40438;52.992;18.604;2023-09-07T02:01:39;16.86;77.24
54540;SHT30;40438;52.992;18.604;2023-09-07T02:04:05;16.82;77.29
54540;SHT30;40438;52.992;18.604;2023-09-07T02:06:31;16.73;78.01
54540;SHT30;40438;52.992;18.604;2023-09-07T02:08:56;16.73;77.56
54540;SHT30;40438;52.992;18.604;2023-09-07T02:11:23;16.69;77.70
54540;SHT30;40438;52.992;18.604;2023-09-07T02:13:50;16.71;77.96
54540;SHT30;40438;52.992;18.604;2023-09-07T02:16:16;16.69;77.88
54540;SHT30;40438;52.992;18.604;2023-09-07T02:18:44;16.75;77.58
54540;SHT30;40438;52.992;18.604;2023-09-07T02:21:10;16.82;77.29
54540;SHT30;40438;52.992;18.604;2023-09-07T02:23:35;16.86;77.08
54540;SHT30;40438;52.992;18.604;2023-09-07T02:26:01;16.89;76.87
54540;SHT30;40438;52.992;18.604;2023-09-07T02:28:28;16.91;76.76
54540;SHT30;40438;52.992;18.604;2023-09-07T02:31:01;16.94;76.66
54540;SHT30;40438;52.992;18.604;2023-09-07T02:33:28;16.89;76.64
54540;SHT30;40438;52.992;18.604;2023-09-07T02:35:54;16.86;76.79
54540;SHT30;40438;52.992;18.604;2023-09-07T02:38:20;16.80;76.80
54540;SHT30;40438;52.992;18.604;2023-09-07T02:40:46;16.72;76.81
54540;SHT30;40438;52.992;18.604;2023-09-07T02:43:13;16.67;76.93
54540;SHT30;40438;52.992;18.604;2023-09-07T02:45:39;16.59;76.96
54540;SHT30;40438;52.992;18.604;2023-09-07T02:48:06;16.52;77.29
54540;SHT30;40438;52.992;18.604;2023-09-07T02:50:33;16.45;78.00
54540;SHT30;40438;52.992;18.604;2023-09-07T02:53:00;16.37;78.19
54540;SHT30;40438;52.992;18.604;2023-09-07T02:55:27;16.31;78.58
54540;SHT30;40438;52.992;18.604;2023-09-07T02:57:53;16.28;78.72
54540;SHT30;40438;52.992;18.604;2023-09-07T03:00:18;16.26;78.70
54540;SHT30;40438;52.992;18.604;2023-09-07T03:02:45;16.21;78.68
54540;SHT30;40438;52.992;18.604;2023-09-07T03:05:12;16.20;78.55
54540;SHT30;40438;52.992;18.604;2023-09-07T03:07:38;16.21;78.41
54540;SHT30;40438;52.992;18.604;2023-09-07T03:10:04;16.17;78.53
54540;SHT30;40438;52.992;18.604;2023-09-07T03:12:30;16.14;78.46
54540;SHT30;40438;52.992;18.604;2023-09-07T03:14:56;16.13;78.27
54540;SHT30;40438;52.992;18.604;2023-09-07T03:17:22;16.12;78.37
54540;SHT30;40438;52.992;18.604;2023-09-07T03:19:48;16.10;78.65
54540;SHT30;40438;52.992;18.604;2023-09-07T03:22:16;16.07;78.73
54540;SHT30;40438;52.992;18.604;2023-09-07T03:24:42;16.01;78.75
54540;SHT30;40438;52.992;18.604;2023-09-07T03:27:08;15.96;79.15
54540;SHT30;40438;52.992;18.604;2023-09-07T03:29:34;15.91;79.28
54540;SHT30;40438;52.992;18.604;2023-09-07T03:32:00;15.87;79.76
54540;SHT30;40438;52.992;18.604;2023-09-07T03:34:26;15.82;79.63
54540;SHT30;40438;52.992;18.604;2023-09-07T03:36:52;15.78;79.73
54540;SHT30;40438;52.992;18.604;2023-09-07T03:39:19;15.78;79.65
54540;SHT30;40438;52.992;18.604;2023-09-07T03:41:45;15.75;79.63
54540;SHT30;40438;52.992;18.604;2023-09-07T03:44:11;15.75;79.42
54540;SHT30;40438;52.992;18.604;2023-09-07T03:46:37;15.75;79.33
54540;SHT30;40438;52.992;18.604;2023-09-07T03:49:03;15.73;79.35
54540;SHT30;40438;52.992;18.604;2023-09-07T03:51:29;15.70;79.26
54540;SHT30;40438;52.992;18.604;2023-09-07T03:53:54;15.68;79.37
54540;SHT30;40438;52.992;18.604;2023-09-07T03:56:22;15.62;79.71
54540;SHT30;40438;52.992;18.604;2023-09-07T03:58:48;15.59;79.97
54540;SHT30;40438;52.992;18.604;2023-09-07T04:01:14;15.59;79.87
54540;SHT30;40438;52.992;18.604;2023-09-07T04:03:40;15.58;79.80
54540;SHT30;40438;52.992;18.604;2023-09-07T04:06:05;15.55;79.86
54540;SHT30;40438;52.992;18.604;2023-09-07T04:08:31;15.57;79.73
54540;SHT30;40438;52.992;18.604;2023-09-07T04:10:57;15.58;79.41
54540;SHT30;40438;52.992;18.604;2023-09-07T04:13:24;15.62;79.25
54540;SHT30;40438;52.992;18.604;2023-09-07T04:15:50;15.70;79.17
54540;SHT30;40438;52.992;18.604;2023-09-07T04:18:16;15.70;79.09
54540;SHT30;40438;52.992;18.604;2023-09-07T04:20:42;15.68;79.21
54540;SHT30;40438;52.992;18.604;2023-09-07T04:23:08;15.70;79.08
54540;SHT30;40438;52.992;18.604;2023-09-07T04:25:34;15.70;79.04
54540;SHT30;40438;52.992;18.604;2023-09-07T04:28:00;15.70;79.04
54540;SHT30;40438;52.992;18.604;2023-09-07T04:30:27;15.70;79.00
54540;SHT30;40438;52.992;18.604;2023-09-07T04:32:53;15.69;79.13
54540;SHT30;40438;52.992;18.604;2023-09-07T04:35:19;15.75;79.01
54540;SHT30;40438;52.992;18.604;2023-09-07T04:37:45;15.75;78.86
54540;SHT30;40438;52.992;18.604;2023-09-07T04:40:11;15.75;78.81
54540;SHT30;40438;52.992;18.604;2023-09-07T04:42:37;15.79;78.69
54540;SHT30;40438;52.992;18.604;2023-09-07T04:45:04;15.79;78.74
54540;SHT30;40438;52.992;18.604;2023-09-07T04:47:31;15.79;78.72
54540;SHT30;40438;52.992;18.604;2023-09-07T04:49:57;15.79;78.68
54540;SHT30;40438;52.992;18.604;2023-09-07T04:52:23;15.79;78.73
54540;SHT30;40438;52.992;18.604;2023-09-07T04:54:48;15.79;78.79
54540;SHT30;40438;52.992;18.604;2023-09-07T04:57:16;15.80;78.77
54540;SHT30;40438;52.992;18.604;2023-09-07T04:59:42;15.85;78.67
54540;SHT30;40438;52.992;18.604;2023-09-07T05:02:08;15.85;78.97
54540;SHT30;40438;52.992;18.604;2023-09-07T05:04:35;15.90;78.86
54540;SHT30;40438;52.992;18.604;2023-09-07T05:07:01;15.99;78.63
54540;SHT30;40438;52.992;18.604;2023-09-07T05:09:27;16.06;78.36
54540;SHT30;40438;52.992;18.604;2023-09-07T05:11:52;16.17;78.07
54540;SHT30;40438;52.992;18.604;2023-09-07T05:14:20;16.20;77.97
54540;SHT30;40438;52.992;18.604;2023-09-07T05:16:45;16.26;77.95
54540;SHT30;40438;52.992;18.604;2023-09-07T05:19:12;16.26;78.13
54540;SHT30;40438;52.992;18.604;2023-09-07T05:21:40;16.30;78.14
54540;SHT30;40438;52.992;18.604;2023-09-07T05:24:06;16.34;78.42
54540;SHT30;40438;52.992;18.604;2023-09-07T05:26:32;16.41;78.72
54540;SHT30;40438;52.992;18.604;2023-09-07T05:28:58;16.45;78.73
54540;SHT30;40438;52.992;18.604;2023-09-07T05:31:24;16.54;78.60
54540;SHT30;40438;52.992;18.604;2023-09-07T05:33:51;16.61;78.53
54540;SHT30;40438;52.992;18.604;2023-09-07T05:36:17;16.69;78.48
54540;SHT30;40438;52.992;18.604;2023-09-07T05:38:44;16.78;79.20
54540;SHT30;40438;52.992;18.604;2023-09-07T05:41:10;16.88;79.83
54540;SHT30;40438;52.992;18.604;2023-09-07T05:43:36;16.98;80.06
54540;SHT30;40438;52.992;18.604;2023-09-07T05:46:01;17.03;80.39
54540;SHT30;40438;52.992;18.604;2023-09-07T05:48:27;17.16;80.73
54540;SHT30;40438;52.992;18.604;2023-09-07T05:50:53;17.26;80.87
54540;SHT30;40438;52.992;18.604;2023-09-07T05:53:20;17.41;81.02
54540;SHT30;40438;52.992;18.604;2023-09-07T05:55:50;17.53;81.06
54540;SHT30;40438;52.992;18.604;2023-09-07T05:58:16;17.65;80.99
54540;SHT30;40438;52.992;18.604;2023-09-07T06:00:43;17.74;80.95
54540;SHT30;40438;52.992;18.604;2023-09-07T06:03:10;17.88;80.65
54540;SHT30;40438;52.992;18.604;2023-09-07T06:05:36;17.99;80.51
54540;SHT30;40438;52.992;18.604;2023-09-07T06:08:03;18.13;80.40
54540;SHT30;40438;52.992;18.604;2023-09-07T06:10:30;18.20;80.26
54540;SHT30;40438;52.992;18.604;2023-09-07T06:12:58;18.33;80.05
54540;SHT30;40438;52.992;18.604;2023-09-07T06:15:26;18.40;79.86
54540;SHT30;40438;52.992;18.604;2023-09-07T06:17:52;18.49;79.55
54540;SHT30;40438;52.992;18.604;2023-09-07T06:20:18;18.57;79.28
54540;SHT30;40438;52.992;18.604;2023-09-07T06:22:44;18.63;79.06
54540;SHT30;40438;52.992;18.604;2023-09-07T06:25:10;18.65;78.71
54540;SHT30;40438;52.992;18.604;2023-09-07T06:27:35;18.71;78.48
54540;SHT30;40438;52.992;18.604;2023-09-07T06:30:04;18.75;78.49
54540;SHT30;40438;52.992;18.604;2023-09-07T06:32:30;18.80;78.31
54540;SHT30;40438;52.992;18.604;2023-09-07T06:34:56;18.87;78.22
54540;SHT30;40438;52.992;18.604;2023-09-07T06:37:22;18.94;78.07
54540;SHT30;40438;52.992;18.604;2023-09-07T06:39:47;18.99;77.82
54540;SHT30;40438;52.992;18.604;2023-09-07T06:42:13;19.11;77.79
54540;SHT30;40438;52.992;18.604;2023-09-07T06:44:49;19.19;77.63
54540;SHT30;40438;52.992;18.604;2023-09-07T06:47:17;19.28;77.35
54540;SHT30;40438;52.992;18.604;2023-09-07T06:49:43;19.35;76.87
54540;SHT30;40438;52.992;18.604;2023-09-07T06:52:09;19.47;76.77
54540;SHT30;40438;52.992;18.604;2023-09-07T06:54:37;19.57;76.47
54540;SHT30;40438;52.992;18.604;2023-09-07T06:57:06;19.67;76.35
54540;SHT30;40438;52.992;18.604;2023-09-07T06:59:32;19.80;75.96
54540;SHT30;40438;52.992;18.604;2023-09-07T07:01:58;19.98;75.41
54540;SHT30;40438;52.992;18.604;2023-09-07T07:04:25;20.14;74.91
54540;SHT30;40438;52.992;18.604;2023-09-07T07:06:51;20.28;74.44
54540;SHT30;40438;52.992;18.604;2023-09-07T07:09:17;20.45;74.04
54540;SHT30;40438;52.992;18.604;2023-09-07T07:11:42;20.62;73.51
54540;SHT30;40438;52.992;18.604;2023-09-07T07:14:09;20.70;72.83
54540;SHT30;40438;52.992;18.604;2023-09-07T07:16:35;20.82;72.50
54540;SHT30;40438;52.992;18.604;2023-09-07T07:19:00;20.93;72.17
54540;SHT30;40438;52.992;18.604;2023-09-07T07:21:28;21.04;71.92
54540;SHT30;40438;52.992;18.604;2023-09-07T07:23:53;21.17;71.66
54540;SHT30;40438;52.992;18.604;2023-09-07T07:26:19;21.32;71.37
54540;SHT30;40438;52.992;18.604;2023-09-07T07:28:45;21.44;71.12
54540;SHT30;40438;52.992;18.604;2023-09-07T07:31:12;21.51;70.80
54540;SHT30;40438;52.992;18.604;2023-09-07T07:33:41;21.61;70.48
54540;SHT30;40438;52.992;18.604;2023-09-07T07:36:07;21.66;70.30
54540;SHT30;40438;52.992;18.604;2023-09-07T07:38:34;21.73;70.21
54540;SHT30;40438;52.992;18.604;2023-09-07T07:41:01;21.80;70.22
54540;SHT30;40438;52.992;18.604;2023-09-07T07:43:26;21.85;69.98
54540;SHT30;40438;52.992;18.604;2023-09-07T07:45:54;21.95;69.88
54540;SHT30;40438;52.992;18.604;2023-09-07T07:48:20;22.05;69.72
54540;SHT30;40438;52.992;18.604;2023-09-07T07:50:46;22.17;69.20
54540;SHT30;40438;52.992;18.604;2023-09-07T07:53:14;22.23;69.08
54540;SHT30;40438;52.992;18.604;2023-09-07T07:55:42;22.27;69.18
54540;SHT30;40438;52.992;18.604;2023-09-07T07:58:13;22.30;69.02
54540;SHT30;40438;52.992;18.604;2023-09-07T08:00:40;22.40;68.55
54540;SHT30;40438;52.992;18.604;2023-09-07T08:03:06;22.47;68.10
54540;SHT30;40438;52.992;18.604;2023-09-07T08:05:32;22.50;68.20
54540;SHT30;40438;52.992;18.604;2023-09-07T08:07:59;22.57;68.22
54540;SHT30;40438;52.992;18.604;2023-09-07T08:10:25;22.61;68.13
54540;SHT30;40438;52.992;18.604;2023-09-07T08:12:53;22.67;68.12
54540;SHT30;40438;52.992;18.604;2023-09-07T08:15:19;22.77;67.40
54540;SHT30;40438;52.992;18.604;2023-09-07T08:17:45;22.87;67.26
54540;SHT30;40438;52.992;18.604;2023-09-07T08:20:11;22.95;66.49
54540;SHT30;40438;52.992;18.604;2023-09-07T08:22:37;23.05;66.28
54540;SHT30;40438;52.992;18.604;2023-09-07T08:25:03;23.19;65.69
54540;SHT30;40438;52.992;18.604;2023-09-07T08:27:29;23.40;65.80
54540;SHT30;40438;52.992;18.604;2023-09-07T08:29:56;23.54;65.24
54540;SHT30;40438;52.992;18.604;2023-09-07T08:32:22;23.66;64.75
54540;SHT30;40438;52.992;18.604;2023-09-07T08:34:48;23.88;64.14
54540;SHT30;40438;52.992;18.604;2023-09-07T08:37:14;24.06;64.05
54540;SHT30;40438;52.992;18.604;2023-09-07T08:39:39;24.28;63.79
54540;SHT30;40438;52.992;18.604;2023-09-07T08:42:06;24.51;62.99
54540;SHT30;40438;52.992;18.604;2023-09-07T08:44:33;24.69;62.89
54540;SHT30;40438;52.992;18.604;2023-09-07T08:47:02;24.91;61.74
54540;SHT30;40438;52.992;18.604;2023-09-07T08:49:28;25.21;61.15
54540;SHT30;40438;52.992;18.604;2023-09-07T08:51:57;25.54;60.33
54540;SHT30;40438;52.992;18.604;2023-09-07T08:54:23;25.76;59.43
54540;SHT30;40438;52.992;18.604;2023-09-07T08:56:50;26.00;59.16
54540;SHT30;40438;52.992;18.604;2023-09-07T08:59:16;26.17;58.71
54540;SHT30;40438;52.992;18.604;2023-09-07T09:01:42;26.31;58.18
54540;SHT30;40438;52.992;18.604;2023-09-07T09:04:09;26.51;57.64
54540;SHT30;40438;52.992;18.604;2023-09-07T09:06:34;26.68;57.19
54540;SHT30;40438;52.992;18.604;2023-09-07T09:09:00;26.82;56.22
54540;SHT30;40438;52.992;18.604;2023-09-07T09:11:26;26.99;56.50
54540;SHT30;40438;52.992;18.604;2023-09-07T09:13:53;27.15;55.98
54540;SHT30;40438;52.992;18.604;2023-09-07T09:16:19;27.30;55.61
54540;SHT30;40438;52.992;18.604;2023-09-07T09:18:49;27.50;55.38
54540;SHT30;40438;52.992;18.604;2023-09-07T09:21:16;27.47;54.97
54540;SHT30;40438;52.992;18.604;2023-09-07T09:23:43;27.50;54.90
54540;SHT30;40438;52.992;18.604;2023-09-07T09:26:09;27.61;54.17
54540;SHT30;40438;52.992;18.604;2023-09-07T09:28:35;27.74;54.32
54540;SHT30;40438;52.992;18.604;2023-09-07T09:31:01;27.71;54.50
54540;SHT30;40438;52.992;18.604;2023-09-07T09:33:30;27.78;54.26
54540;SHT30;40438;52.992;18.604;2023-09-07T09:35:57;27.82;54.14
54540;SHT30;40438;52.992;18.604;2023-09-07T09:38:24;27.87;54.22
54540;SHT30;40438;52.992;18.604;2023-09-07T09:40:50;27.92;54.11
54540;SHT30;40438;52.992;18.604;2023-09-07T09:43:17;28.07;53.67
54540;SHT30;40438;52.992;18.604;2023-09-07T09:45:44;28.04;53.68
54540;SHT30;40438;52.992;18.604;2023-09-07T09:48:13;28.05;53.88
54540;SHT30;40438;52.992;18.604;2023-09-07T09:50:40;28.08;53.87
54540;SHT30;40438;52.992;18.604;2023-09-07T09:53:06;28.19;53.68
54540;SHT30;40438;52.992;18.604;2023-09-07T09:55:33;28.47;53.10
54540;SHT30;40438;52.992;18.604;2023-09-07T09:57:59;28.65;51.92
54540;SHT30;40438;52.992;18.604;2023-09-07T10:00:25;28.83;52.10
54540;SHT30;40438;52.992;18.604;2023-09-07T10:02:57;28.91;51.24
54540;SHT30;40438;52.992;18.604;2023-09-07T10:05:23;28.97;51.80
54540;SHT30;40438;52.992;18.604;2023-09-07T10:07:52;29.03;54.04
54540;SHT30;40438;52.992;18.604;2023-09-07T10:10:19;28.94;51.98
54540;SHT30;40438;52.992;18.604;2023-09-07T10:12:53;28.93;52.59
54540;SHT30;40438;52.992;18.604;2023-09-07T10:15:22;28.86;53.03
54540;SHT30;40438;52.992;18.604;2023-09-07T10:17:48;28.86;53.00
54540;SHT30;40438;52.992;18.604;2023-09-07T10:20:14;28.83;52.71
54540;SHT30;40438;52.992;18.604;2023-09-07T10:22:40;28.77;52.69
54540;SHT30;40438;52.992;18.604;2023-09-07T10:25:06;28.72;51.63
54540;SHT30;40438;52.992;18.604;2023-09-07T10:27:42;28.94;48.00
54540;SHT30;40438;52.992;18.604;2023-09-07T10:30:13;29.18;47.92
54540;SHT30;40438;52.992;18.604;2023-09-07T10:32:38;29.24;49.44
54540;SHT30;40438;52.992;18.604;2023-09-07T10:35:13;29.31;49.62
54540;SHT30;40438;52.992;18.604;2023-09-07T10:37:39;29.44;47.88
54540;SHT30;40438;52.992;18.604;2023-09-07T10:40:05;29.58;47.61
54540;SHT30;40438;52.992;18.604;2023-09-07T10:42:31;29.51;49.85
54540;SHT30;40438;52.992;18.604;2023-09-07T10:45:08;29.39;49.39
54540;SHT30;40438;52.992;18.604;2023-09-07T10:47:41;29.30;49.20
54540;SHT30;40438;52.992;18.604;2023-09-07T10:50:17;29.53;48.53
54540;SHT30;40438;52.992;18.604;2023-09-07T10:52:46;29.79;46.40
54540;SHT30;40438;52.992;18.604;2023-09-07T10:55:14;29.97;46.84
54540;SHT30;40438;52.992;18.604;2023-09-07T10:57:49;30.31;46.41
54540;SHT30;40438;52.992;18.604;2023-09-07T11:00:18;30.54;47.64
54540;SHT30;40438;52.992;18.604;2023-09-07T11:02:47;30.89;44.65
54540;SHT30;40438;52.992;18.604;2023-09-07T11:05:14;31.03;46.41
54540;SHT30;40438;52.992;18.604;2023-09-07T11:07:40;31.16;44.23
54540;SHT30;40438;52.992;18.604;2023-09-07T11:10:09;31.44;45.72
54540;SHT30;40438;52.992;18.604;2023-09-07T11:12:43;31.66;44.06
54540;SHT30;40438;52.992;18.604;2023-09-07T11:15:11;31.80;44.54
54540;SHT30;40438;52.992;18.604;2023-09-07T11:17:37;31.81;44.01
54540;SHT30;40438;52.992;18.604;2023-09-07T11:20:10;32.07;44.28
54540;SHT30;40438;52.992;18.604;2023-09-07T11:22:38;32.04;42.97
54540;SHT30;40438;52.992;18.604;2023-09-07T11:25:07;32.12;44.62
54540;SHT30;40438;52.992;18.604;2023-09-07T11:27:34;32.26;44.41
54540;SHT30;40438;52.992;18.604;2023-09-07T11:30:11;32.49;43.72
54540;SHT30;40438;52.992;18.604;2023-09-07T11:32:37;32.66;43.13
54540;SHT30;40438;52.992;18.604;2023-09-07T11:35:06;32.66;42.62
54540;SHT30;40438;52.992;18.604;2023-09-07T11:37:36;32.65;42.68
54540;SHT30;40438;52.992;18.604;2023-09-07T11:40:02;32.65;42.14
54540;SHT30;40438;52.992;18.604;2023-09-07T11:42:40;32.73;42.04
54540;SHT30;40438;52.992;18.604;2023-09-07T11:45:10;32.80;41.66
54540;SHT30;40438;52.992;18.604;2023-09-07T11:47:39;32.90;41.22
54540;SHT30;40438;52.992;18.604;2023-09-07T11:50:18;32.86;40.81
54540;SHT30;40438;52.992;18.604;2023-09-07T11:52:50;32.62;40.90
54540;SHT30;40438;52.992;18.604;2023-09-07T11:55:19;32.57;40.65
54540;SHT30;40438;52.992;18.604;2023-09-07T11:57:45;32.70;41.23
54540;SHT30;40438;52.992;18.604;2023-09-07T12:00:16;32.72;40.36
54540;SHT30;40438;52.992;18.604;2023-09-07T12:02:45;32.79;39.64
54540;SHT30;40438;52.992;18.604;2023-09-07T12:05:11;33.00;40.46
54540;SHT30;40438;52.992;18.604;2023-09-07T12:07:42;33.18;38.97
54540;SHT30;40438;52.992;18.604;2023-09-07T12:10:15;33.27;39.58
54540;SHT30;40438;52.992;18.604;2023-09-07T12:12:43;33.55;40.17
54540;SHT30;40438;52.992;18.604;2023-09-07T12:15:20;33.71;39.59
54540;SHT30;40438;52.992;18.604;2023-09-07T12:17:46;33.91;39.28
54540;SHT30;40438;52.992;18.604;2023-09-07T12:20:12;34.06;38.57
54540;SHT30;40438;52.992;18.604;2023-09-07T12:22:57;34.16;38.73
54540;SHT30;40438;52.992;18.604;2023-09-07T12:25:23;34.26;38.79
54540;SHT30;40438;52.992;18.604;2023-09-07T12:27:49;34.13;37.86
54540;SHT30;40438;52.992;18.604;2023-09-07T12:30:15;34.23;38.02
54540;SHT30;40438;52.992;18.604;2023-09-07T12:32:44;34.21;38.44
54540;SHT30;40438;52.992;18.604;2023-09-07T12:35:10;34.32;37.62
54540;SHT30;40438;52.992;18.604;2023-09-07T12:37:35;34.12;36.89
54540;SHT30;40438;52.992;18.604;2023-09-07T12:40:03;33.99;37.01
54540;SHT30;40438;52.992;18.604;2023-09-07T12:42:32;33.93;40.37
54540;SHT30;40438;52.992;18.604;2023-09-07T12:44:58;33.61;40.46
54540;SHT30;40438;52.992;18.604;2023-09-07T12:47:23;33.21;41.67
54540;SHT30;40438;52.992;18.604;2023-09-07T12:49:49;32.90;41.52
54540;SHT30;40438;52.992;18.604;2023-09-07T12:52:15;33.07;40.07
54540;SHT30;40438;52.992;18.604;2023-09-07T12:54:41;33.10;39.44
54540;SHT30;40438;52.992;18.604;2023-09-07T12:57:08;33.23;38.39
54540;SHT30;40438;52.992;18.604;2023-09-07T12:59:34;33.23;37.19
54540;SHT30;40438;52.992;18.604;2023-09-07T13:01:59;33.40;39.27
54540;SHT30;40438;52.992;18.604;2023-09-07T13:04:25;33.45;39.61
54540;SHT30;40438;52.992;18.604;2023-09-07T13:06:51;33.59;40.28
54540;SHT30;40438;52.992;18.604;2023-09-07T13:09:17;33.69;38.77
54540;SHT30;40438;52.992;18.604;2023-09-07T13:15:07;33.68;36.06
54540;SHT30;40438;52.992;18.604;2023-09-07T13:17:33;33.68;36.45
54540;SHT30;40438;52.992;18.604;2023-09-07T13:19:58;33.68;37.31
54540;SHT30;40438;52.992;18.604;2023-09-07T13:22:24;33.81;38.16
54540;SHT30;40438;52.992;18.604;2023-09-07T13:24:50;33.86;38.09
54540;SHT30;40438;52.992;18.604;2023-09-07T13:27:16;34.00;37.24
54540;SHT30;40438;52.992;18.604;2023-09-07T13:29:42;34.00;37.17
54540;SHT30;40438;52.992;18.604;2023-09-07T13:32:09;33.92;38.02
54540;SHT30;40438;52.992;18.604;2023-09-07T18:35:15;23.54;63.31
54540;SHT30;40438;52.992;18.604;2023-09-07T18:37:40;23.51;63.60
54540;SHT30;40438;52.992;18.604;2023-09-07T18:40:07;23.43;63.86
54540;SHT30;40438;52.992;18.604;2023-09-07T18:42:33;23.36;63.80
54540;SHT30;40438;52.992;18.604;2023-09-07T18:44:59;23.25;64.03
54540;SHT30;40438;52.992;18.604;2023-09-07T18:47:25;23.22;64.04
54540;SHT30;40438;52.992;18.604;2023-09-07T18:49:50;23.14;64.36
54540;SHT30;40438;52.992;18.604;2023-09-07T18:52:18;23.06;64.26
54540;SHT30;40438;52.992;18.604;2023-09-07T18:54:45;23.06;64.46
54540;SHT30;40438;52.992;18.604;2023-09-07T18:57:10;23.06;64.70
54540;SHT30;40438;52.992;18.604;2023-09-07T18:59:36;23.05;64.98
54540;SHT30;40438;52.992;18.604;2023-09-07T19:02:02;23.03;65.13
54540;SHT30;40438;52.992;18.604;2023-09-07T19:04:28;22.98;65.20
54540;SHT30;40438;52.992;18.604;2023-09-07T19:06:54;22.94;65.42
54540;SHT30;40438;52.992;18.604;2023-09-07T19:09:21;22.91;65.42
54540;SHT30;40438;52.992;18.604;2023-09-07T19:11:47;22.87;65.37
54540;SHT30;40438;52.992;18.604;2023-09-07T19:14:13;22.78;65.34
54540;SHT30;40438;52.992;18.604;2023-09-07T19:16:39;22.74;65.65
54540;SHT30;40438;52.992;18.604;2023-09-07T19:19:04;22.67;65.88
54540;SHT30;40438;52.992;18.604;2023-09-07T19:21:31;22.68;65.70
54540;SHT30;40438;52.992;18.604;2023-09-07T19:23:56;22.67;65.84
54540;SHT30;40438;52.992;18.604;2023-09-07T19:26:28;22.60;66.10
54540;SHT30;40438;52.992;18.604;2023-09-07T19:28:54;22.57;66.38
54540;SHT30;40438;52.992;18.604;2023-09-07T19:31:23;22.53;66.45
54540;SHT30;40438;52.992;18.604;2023-09-07T19:33:50;22.47;66.49
54540;SHT30;40438;52.992;18.604;2023-09-07T19:36:15;22.44;66.49
54540;SHT30;40438;52.992;18.604;2023-09-07T19:38:41;22.41;66.88
54540;SHT30;40438;52.992;18.604;2023-09-07T19:41:07;22.37;66.90
54540;SHT30;40438;52.992;18.604;2023-09-07T19:43:34;22.36;66.95
54540;SHT30;40438;52.992;18.604;2023-09-07T19:46:00;22.34;67.07
54540;SHT30;40438;52.992;18.604;2023-09-07T19:48:26;22.30;67.04
54540;SHT30;40438;52.992;18.604;2023-09-07T19:50:54;22.29;67.10
54540;SHT30;40438;52.992;18.604;2023-09-07T19:53:20;22.23;67.00
54540;SHT30;40438;52.992;18.604;2023-09-07T19:55:46;22.19;67.13
54540;SHT30;40438;52.992;18.604;2023-09-07T19:58:12;22.20;67.14
54540;SHT30;40438;52.992;18.604;2023-09-07T20:00:39;22.14;67.21
54540;SHT30;40438;52.992;18.604;2023-09-07T20:03:05;22.14;67.26
54540;SHT30;40438;52.992;18.604;2023-09-07T20:05:31;22.03;67.40
54540;SHT30;40438;52.992;18.604;2023-09-07T20:07:59;22.00;67.59
54540;SHT30;40438;52.992;18.604;2023-09-07T20:10:26;21.92;67.55
54540;SHT30;40438;52.992;18.604;2023-09-07T20:12:52;21.88;67.79
54540;SHT30;40438;52.992;18.604;2023-09-07T20:15:18;21.79;67.90
54540;SHT30;40438;52.992;18.604;2023-09-07T20:17:46;21.78;67.94